sensor_id;sensor_type;location;lat;lon;timestamp;P1;durP1;ratioP1;P2;durP2;ratioP2
21771;SDS011;11047;47.904;8.110;2023-12-04T00:00:05;6.55;;;4.45;;
21771;SDS011;11047;47.904;8.110;2023-12-04T00:02:33;7.10;;;4.88;;
21771;SDS011;11047;47.904;8.110;2023-12-04T00:04:59;8.93;;;5.63;;
21771;SDS011;11047;47.904;8.110;2023-12-04T00:07:28;7.43;;;4.38;;
21771;SDS011;11047;47.904;8.110;2023-12-04T00:09:57;9.23;;;5.20;;
21771;SDS011;11047;47.904;8.110;2023-12-04T00:12:28;8.43;;;4.95;;
21771;SDS011;11047;47.904;8.110;2023-12-04T00:14:56;8.52;;;4.22;;
21771;SDS011;11047;47.904;8.110;2023-12-04T00:17:23;8.82;;;4.75;;
21771;SDS011;11047;47.904;8.110;2023-12-04T00:19:54;8.38;;;5.00;;
21771;SDS011;11047;47.904;8.110;2023-12-04T00:22:24;7.85;;;5.30;;
21771;SDS011;11047;47.904;8.110;2023-12-04T00:24:53;8.88;;;4.78;;
21771;SDS011;11047;47.904;8.110;2023-12-04T00:27:20;7.43;;;4.07;;
21771;SDS011;11047;47.904;8.110;2023-12-04T00:29:51;7.93;;;4.85;;
21771;SDS011;11047;47.904;8.110;2023-12-04T00:32:21;9.95;;;5.93;;
21771;SDS011;11047;47.904;8.110;2023-12-04T00:34:48;8.90;;;5.18;;
21771;SDS011;11047;47.904;8.110;2023-12-04T00:37:18;7.95;;;5.03;;
21771;SDS011;11047;47.904;8.110;2023-12-04T00:39:45;9.18;;;4.60;;
21771;SDS011;11047;47.904;8.110;2023-12-04T00:42:13;7.97;;;4.72;;
21771;SDS011;11047;47.904;8.110;2023-12-04T00:47:18;6.80;;;4.55;;
21771;SDS011;11047;47.904;8.110;2023-12-04T00:50:20;7.20;;;4.85;;
21771;SDS011;11047;47.904;8.110;2023-12-04T00:53:28;8.75;;;4.78;;
21771;SDS011;11047;47.904;8.110;2023-12-04T00:56:16;8.77;;;5.13;;
21771;SDS011;11047;47.904;8.110;2023-12-04T00:59:19;6.97;;;4.30;;
21771;SDS011;11047;47.904;8.110;2023-12-04T01:02:01;8.98;;;4.80;;
21771;SDS011;11047;47.904;8.110;2023-12-04T01:04:45;5.73;;;4.33;;
21771;SDS011;11047;47.904;8.110;2023-12-04T01:07:15;6.22;;;4.45;;
21771;SDS011;11047;47.904;8.110;2023-12-04T01:10:20;7.47;;;4.22;;
21771;SDS011;11047;47.904;8.110;2023-12-04T01:13:33;8.32;;;5.05;;
21771;SDS011;11047;47.904;8.110;2023-12-04T01:16:37;8.55;;;5.15;;
21771;SDS011;11047;47.904;8.110;2023-12-04T01:19:26;8.48;;;4.78;;
21771;SDS011;11047;47.904;8.110;2023-12-04T01:22:20;7.60;;;4.60;;
21771;SDS011;11047;47.904;8.110;2023-12-04T01:25:26;6.60;;;4.43;;
21771;SDS011;11047;47.904;8.110;2023-12-04T01:31:17;7.75;;;4.32;;
21771;SDS011;11047;47.904;8.110;2023-12-04T01:33:50;6.93;;;4.35;;
21771;SDS011;11047;47.904;8.110;2023-12-04T01:36:24;7.47;;;4.57;;
21771;SDS011;11047;47.904;8.110;2023-12-04T01:39:03;8.38;;;4.43;;
21771;SDS011;11047;47.904;8.110;2023-12-04T01:41:30;8.70;;;4.75;;
21771;SDS011;11047;47.904;8.110;2023-12-04T01:43:57;6.13;;;3.97;;
21771;SDS011;11047;47.904;8.110;2023-12-04T01:46:24;6.15;;;4.13;;
21771;SDS011;11047;47.904;8.110;2023-12-04T01:48:51;5.68;;;3.70;;
21771;SDS011;11047;47.904;8.110;2023-12-04T01:51:19;5.32;;;3.20;;
21771;SDS011;11047;47.904;8.110;2023-12-04T01:53:47;7.28;;;4.40;;
21771;SDS011;11047;47.904;8.110;2023-12-04T01:56:17;5.30;;;3.50;;
21771;SDS011;11047;47.904;8.110;2023-12-04T01:58:45;7.53;;;3.97;;
21771;SDS011;11047;47.904;8.110;2023-12-04T02:01:13;7.90;;;3.70;;
21771;SDS011;11047;47.904;8.110;2023-12-04T02:03:40;5.25;;;3.60;;
21771;SDS011;11047;47.904;8.110;2023-12-04T02:06:09;5.93;;;3.50;;
21771;SDS011;11047;47.904;8.110;2023-12-04T02:08:38;6.90;;;4.10;;
21771;SDS011;11047;47.904;8.110;2023-12-04T02:11:07;6.68;;;3.65;;
21771;SDS011;11047;47.904;8.110;2023-12-04T02:13:36;5.07;;;3.25;;
21771;SDS011;11047;47.904;8.110;2023-12-04T02:18:36;4.05;;;2.92;;
21771;SDS011;11047;47.904;8.110;2023-12-04T02:21:04;4.63;;;3.10;;
21771;SDS011;11047;47.904;8.110;2023-12-04T02:23:31;3.95;;;2.85;;
21771;SDS011;11047;47.904;8.110;2023-12-04T02:26:01;4.97;;;3.13;;
21771;SDS011;11047;47.904;8.110;2023-12-04T02:28:35;3.80;;;2.75;;
21771;SDS011;11047;47.904;8.110;2023-12-04T02:31:04;4.53;;;2.90;;
21771;SDS011;11047;47.904;8.110;2023-12-04T02:33:32;7.28;;;3.47;;
21771;SDS011;11047;47.904;8.110;2023-12-04T02:36:02;4.53;;;3.00;;
21771;SDS011;11047;47.904;8.110;2023-12-04T02:38:31;7.82;;;3.58;;
21771;SDS011;11047;47.904;8.110;2023-12-04T02:41:01;3.85;;;2.92;;
21771;SDS011;11047;47.904;8.110;2023-12-04T02:43:28;3.83;;;2.88;;
21771;SDS011;11047;47.904;8.110;2023-12-04T02:45:58;4.72;;;3.05;;
21771;SDS011;11047;47.904;8.110;2023-12-04T02:48:28;4.53;;;2.92;;
21771;SDS011;11047;47.904;8.110;2023-12-04T02:50:55;5.85;;;3.13;;
21771;SDS011;11047;47.904;8.110;2023-12-04T02:53:22;5.40;;;3.42;;
21771;SDS011;11047;47.904;8.110;2023-12-04T02:55:54;5.22;;;3.15;;
21771;SDS011;11047;47.904;8.110;2023-12-04T02:58:23;5.13;;;2.88;;
21771;SDS011;11047;47.904;8.110;2023-12-04T03:00:50;5.13;;;2.97;;
21771;SDS011;11047;47.904;8.110;2023-12-04T03:03:17;4.45;;;3.25;;
21771;SDS011;11047;47.904;8.110;2023-12-04T03:05:44;7.25;;;4.25;;
21771;SDS011;11047;47.904;8.110;2023-12-04T03:08:11;4.57;;;2.88;;
21771;SDS011;11047;47.904;8.110;2023-12-04T03:10:39;6.15;;;3.30;;
21771;SDS011;11047;47.904;8.110;2023-12-04T03:13:08;4.95;;;2.92;;
21771;SDS011;11047;47.904;8.110;2023-12-04T03:15:36;4.80;;;3.00;;
21771;SDS011;11047;47.904;8.110;2023-12-04T03:18:04;4.25;;;3.03;;
21771;SDS011;11047;47.904;8.110;2023-12-04T03:20:32;4.43;;;2.95;;
21771;SDS011;11047;47.904;8.110;2023-12-04T03:22:59;3.65;;;2.80;;
21771;SDS011;11047;47.904;8.110;2023-12-04T03:25:26;3.85;;;2.35;;
21771;SDS011;11047;47.904;8.110;2023-12-04T03:27:55;3.35;;;2.47;;
21771;SDS011;11047;47.904;8.110;2023-12-04T03:30:22;5.07;;;2.75;;
21771;SDS011;11047;47.904;8.110;2023-12-04T03:32:54;3.55;;;2.45;;
21771;SDS011;11047;47.904;8.110;2023-12-04T03:35:24;5.27;;;2.43;;
21771;SDS011;11047;47.904;8.110;2023-12-04T03:37:51;3.33;;;2.25;;
21771;SDS011;11047;47.904;8.110;2023-12-04T03:40:18;4.35;;;2.92;;
21771;SDS011;11047;47.904;8.110;2023-12-04T03:42:45;3.95;;;2.65;;
21771;SDS011;11047;47.904;8.110;2023-12-04T03:45:12;3.38;;;2.20;;
21771;SDS011;11047;47.904;8.110;2023-12-04T03:47:39;3.75;;;2.60;;
21771;SDS011;11047;47.904;8.110;2023-12-04T03:50:08;3.45;;;2.35;;
21771;SDS011;11047;47.904;8.110;2023-12-04T03:52:35;3.80;;;2.30;;
21771;SDS011;11047;47.904;8.110;2023-12-04T03:55:07;2.97;;;2.22;;
21771;SDS011;11047;47.904;8.110;2023-12-04T03:57:36;3.47;;;2.47;;
21771;SDS011;11047;47.904;8.110;2023-12-04T04:00:13;3.15;;;1.90;;
21771;SDS011;11047;47.904;8.110;2023-12-04T04:02:42;2.03;;;1.83;;
21771;SDS011;11047;47.904;8.110;2023-12-04T04:05:10;3.70;;;2.05;;
21771;SDS011;11047;47.904;8.110;2023-12-04T04:07:38;2.65;;;1.73;;
21771;SDS011;11047;47.904;8.110;2023-12-04T04:10:06;3.33;;;2.10;;
21771;SDS011;11047;47.904;8.110;2023-12-04T04:12:34;3.30;;;2.25;;
21771;SDS011;11047;47.904;8.110;2023-12-04T04:15:03;2.92;;;2.10;;
21771;SDS011;11047;47.904;8.110;2023-12-04T04:17:32;3.17;;;2.03;;
21771;SDS011;11047;47.904;8.110;2023-12-04T04:20:11;2.45;;;1.90;;
21771;SDS011;11047;47.904;8.110;2023-12-04T04:22:39;3.00;;;2.15;;
21771;SDS011;11047;47.904;8.110;2023-12-04T04:25:07;3.10;;;2.08;;
21771;SDS011;11047;47.904;8.110;2023-12-04T04:27:36;2.70;;;1.80;;
21771;SDS011;11047;47.904;8.110;2023-12-04T04:30:04;3.05;;;1.98;;
21771;SDS011;11047;47.904;8.110;2023-12-04T04:32:33;2.88;;;1.92;;
21771;SDS011;11047;47.904;8.110;2023-12-04T04:35:03;2.97;;;1.98;;
21771;SDS011;11047;47.904;8.110;2023-12-04T04:37:44;2.55;;;2.00;;
21771;SDS011;11047;47.904;8.110;2023-12-04T04:40:18;4.68;;;2.58;;
21771;SDS011;11047;47.904;8.110;2023-12-04T04:42:52;2.35;;;2.03;;
21771;SDS011;11047;47.904;8.110;2023-12-04T04:45:33;3.53;;;2.33;;
21771;SDS011;11047;47.904;8.110;2023-12-04T04:48:34;2.35;;;1.95;;
21771;SDS011;11047;47.904;8.110;2023-12-04T05:01:03;3.25;;;2.15;;
21771;SDS011;11047;47.904;8.110;2023-12-04T05:04:02;4.80;;;2.03;;
21771;SDS011;11047;47.904;8.110;2023-12-04T05:06:48;3.65;;;1.75;;
21771;SDS011;11047;47.904;8.110;2023-12-04T05:09:24;2.47;;;1.90;;
21771;SDS011;11047;47.904;8.110;2023-12-04T05:15:10;2.95;;;1.90;;
21771;SDS011;11047;47.904;8.110;2023-12-04T05:21:32;3.92;;;2.55;;
21771;SDS011;11047;47.904;8.110;2023-12-04T05:24:06;2.60;;;1.98;;
21771;SDS011;11047;47.904;8.110;2023-12-04T05:26:42;3.95;;;2.53;;
21771;SDS011;11047;47.904;8.110;2023-12-04T05:29:29;3.00;;;1.98;;
21771;SDS011;11047;47.904;8.110;2023-12-04T05:32:17;3.53;;;2.22;;
21771;SDS011;11047;47.904;8.110;2023-12-04T05:38:36;3.35;;;2.00;;
21771;SDS011;11047;47.904;8.110;2023-12-04T05:41:31;4.88;;;2.40;;
21771;SDS011;11047;47.904;8.110;2023-12-04T05:44:01;3.50;;;2.25;;
21771;SDS011;11047;47.904;8.110;2023-12-04T05:46:28;4.00;;;2.33;;
21771;SDS011;11047;47.904;8.110;2023-12-04T05:48:59;3.80;;;2.17;;
21771;SDS011;11047;47.904;8.110;2023-12-04T05:51:27;3.20;;;2.20;;
21771;SDS011;11047;47.904;8.110;2023-12-04T05:53:55;2.85;;;1.98;;
21771;SDS011;11047;47.904;8.110;2023-12-04T05:56:22;4.78;;;2.40;;
21771;SDS011;11047;47.904;8.110;2023-12-04T05:58:51;4.75;;;2.78;;
21771;SDS011;11047;47.904;8.110;2023-12-04T06:01:18;2.90;;;2.38;;
21771;SDS011;11047;47.904;8.110;2023-12-04T06:03:46;3.00;;;2.22;;
21771;SDS011;11047;47.904;8.110;2023-12-04T06:06:14;3.08;;;2.05;;
21771;SDS011;11047;47.904;8.110;2023-12-04T06:08:44;3.45;;;2.33;;
21771;SDS011;11047;47.904;8.110;2023-12-04T06:11:11;3.00;;;2.38;;
21771;SDS011;11047;47.904;8.110;2023-12-04T06:13:39;4.65;;;2.67;;
21771;SDS011;11047;47.904;8.110;2023-12-04T06:16:06;3.80;;;2.70;;
21771;SDS011;11047;47.904;8.110;2023-12-04T06:18:38;3.55;;;2.40;;
21771;SDS011;11047;47.904;8.110;2023-12-04T06:21:05;3.60;;;2.47;;
21771;SDS011;11047;47.904;8.110;2023-12-04T06:23:34;3.60;;;2.75;;
21771;SDS011;11047;47.904;8.110;2023-12-04T06:26:02;3.60;;;2.50;;
21771;SDS011;11047;47.904;8.110;2023-12-04T06:28:34;5.13;;;2.75;;
21771;SDS011;11047;47.904;8.110;2023-12-04T06:31:01;3.53;;;2.45;;
21771;SDS011;11047;47.904;8.110;2023-12-04T06:33:29;9.68;;;4.63;;
21771;SDS011;11047;47.904;8.110;2023-12-04T06:35:57;11.88;;;5.45;;
21771;SDS011;11047;47.904;8.110;2023-12-04T06:38:24;6.63;;;3.47;;
21771;SDS011;11047;47.904;8.110;2023-12-04T06:44:13;7.35;;;4.25;;
21771;SDS011;11047;47.904;8.110;2023-12-04T06:47:04;9.50;;;4.43;;
21771;SDS011;11047;47.904;8.110;2023-12-04T06:50:09;11.38;;;6.47;;
21771;SDS011;11047;47.904;8.110;2023-12-04T07:06:14;5.40;;;3.28;;
21771;SDS011;11047;47.904;8.110;2023-12-04T07:08:52;5.20;;;3.65;;
21771;SDS011;11047;47.904;8.110;2023-12-04T07:11:19;3.92;;;3.35;;
21771;SDS011;11047;47.904;8.110;2023-12-04T07:13:53;3.75;;;2.78;;
21771;SDS011;11047;47.904;8.110;2023-12-04T07:23:42;8.02;;;4.57;;
21771;SDS011;11047;47.904;8.110;2023-12-04T07:29:52;5.88;;;3.60;;
21771;SDS011;11047;47.904;8.110;2023-12-04T07:39:07;5.05;;;3.42;;
21771;SDS011;11047;47.904;8.110;2023-12-04T07:41:40;4.70;;;3.45;;
21771;SDS011;11047;47.904;8.110;2023-12-04T07:44:09;6.10;;;3.42;;
21771;SDS011;11047;47.904;8.110;2023-12-04T07:46:37;4.50;;;3.63;;
21771;SDS011;11047;47.904;8.110;2023-12-04T07:49:04;6.68;;;3.63;;
21771;SDS011;11047;47.904;8.110;2023-12-04T07:51:31;5.15;;;3.42;;
21771;SDS011;11047;47.904;8.110;2023-12-04T07:54:01;5.35;;;3.28;;
21771;SDS011;11047;47.904;8.110;2023-12-04T07:56:31;4.88;;;3.63;;
21771;SDS011;11047;47.904;8.110;2023-12-04T07:59:07;4.40;;;2.90;;
21771;SDS011;11047;47.904;8.110;2023-12-04T08:01:34;6.97;;;3.83;;
21771;SDS011;11047;47.904;8.110;2023-12-04T08:04:01;6.90;;;4.20;;
21771;SDS011;11047;47.904;8.110;2023-12-04T08:06:28;5.00;;;3.50;;
21771;SDS011;11047;47.904;8.110;2023-12-04T08:08:56;6.60;;;3.90;;
21771;SDS011;11047;47.904;8.110;2023-12-04T08:11:32;6.97;;;4.00;;
21771;SDS011;11047;47.904;8.110;2023-12-04T08:14:01;7.45;;;4.47;;
21771;SDS011;11047;47.904;8.110;2023-12-04T08:16:39;7.47;;;3.75;;
21771;SDS011;11047;47.904;8.110;2023-12-04T08:19:07;6.03;;;4.00;;
21771;SDS011;11047;47.904;8.110;2023-12-04T08:21:35;6.50;;;4.07;;
21771;SDS011;11047;47.904;8.110;2023-12-04T08:24:07;6.15;;;3.78;;
21771;SDS011;11047;47.904;8.110;2023-12-04T08:26:36;6.05;;;3.88;;
21771;SDS011;11047;47.904;8.110;2023-12-04T08:29:05;6.05;;;3.95;;
21771;SDS011;11047;47.904;8.110;2023-12-04T08:31:32;6.57;;;3.72;;
21771;SDS011;11047;47.904;8.110;2023-12-04T08:34:08;5.40;;;3.58;;
21771;SDS011;11047;47.904;8.110;2023-12-04T08:36:39;4.85;;;3.45;;
21771;SDS011;11047;47.904;8.110;2023-12-04T08:39:10;6.43;;;4.03;;
21771;SDS011;11047;47.904;8.110;2023-12-04T08:41:40;6.40;;;3.58;;
21771;SDS011;11047;47.904;8.110;2023-12-04T08:44:15;5.78;;;3.50;;
21771;SDS011;11047;47.904;8.110;2023-12-04T08:46:59;6.53;;;3.70;;
21771;SDS011;11047;47.904;8.110;2023-12-04T08:49:28;4.38;;;3.13;;
21771;SDS011;11047;47.904;8.110;2023-12-04T08:51:59;5.17;;;3.47;;
21771;SDS011;11047;47.904;8.110;2023-12-04T08:54:28;5.15;;;3.13;;
21771;SDS011;11047;47.904;8.110;2023-12-04T08:56:56;5.75;;;3.97;;
21771;SDS011;11047;47.904;8.110;2023-12-04T08:59:25;5.93;;;3.40;;
21771;SDS011;11047;47.904;8.110;2023-12-04T09:02:11;5.43;;;3.95;;
21771;SDS011;11047;47.904;8.110;2023-12-04T09:04:38;7.88;;;4.43;;
21771;SDS011;11047;47.904;8.110;2023-12-04T09:07:05;6.70;;;4.38;;
21771;SDS011;11047;47.904;8.110;2023-12-04T09:09:35;6.38;;;3.85;;
21771;SDS011;11047;47.904;8.110;2023-12-04T09:12:05;8.23;;;4.38;;
21771;SDS011;11047;47.904;8.110;2023-12-04T09:14:49;5.07;;;3.20;;
21771;SDS011;11047;47.904;8.110;2023-12-04T09:17:16;4.90;;;3.13;;
21771;SDS011;11047;47.904;8.110;2023-12-04T09:19:43;4.57;;;3.67;;
21771;SDS011;11047;47.904;8.110;2023-12-04T09:22:15;4.88;;;3.17;;
21771;SDS011;11047;47.904;8.110;2023-12-04T09:24:53;4.07;;;2.65;;
21771;SDS011;11047;47.904;8.110;2023-12-04T09:27:24;3.78;;;2.60;;
21771;SDS011;11047;47.904;8.110;2023-12-04T09:29:53;3.58;;;2.17;;
21771;SDS011;11047;47.904;8.110;2023-12-04T09:32:21;3.63;;;2.60;;
21771;SDS011;11047;47.904;8.110;2023-12-04T09:34:48;2.67;;;2.10;;
21771;SDS011;11047;47.904;8.110;2023-12-04T09:37:18;4.45;;;2.30;;
21771;SDS011;11047;47.904;8.110;2023-12-04T09:39:46;3.10;;;2.13;;
21771;SDS011;11047;47.904;8.110;2023-12-04T09:42:14;2.65;;;2.33;;
21771;SDS011;11047;47.904;8.110;2023-12-04T09:44:48;3.25;;;2.47;;
21771;SDS011;11047;47.904;8.110;2023-12-04T09:47:19;4.25;;;2.78;;
21771;SDS011;11047;47.904;8.110;2023-12-04T09:49:48;2.47;;;2.28;;
21771;SDS011;11047;47.904;8.110;2023-12-04T09:52:22;5.00;;;2.80;;
21771;SDS011;11047;47.904;8.110;2023-12-04T09:54:51;3.78;;;2.80;;
21771;SDS011;11047;47.904;8.110;2023-12-04T09:57:18;3.35;;;3.05;;
21771;SDS011;11047;47.904;8.110;2023-12-04T09:59:47;3.58;;;2.90;;
21771;SDS011;11047;47.904;8.110;2023-12-04T10:02:17;3.08;;;2.72;;
21771;SDS011;11047;47.904;8.110;2023-12-04T10:04:48;2.08;;;1.88;;
21771;SDS011;11047;47.904;8.110;2023-12-04T10:07:15;3.08;;;2.25;;
21771;SDS011;11047;47.904;8.110;2023-12-04T10:09:42;4.60;;;2.03;;
21771;SDS011;11047;47.904;8.110;2023-12-04T10:12:09;2.25;;;2.05;;
21771;SDS011;11047;47.904;8.110;2023-12-04T10:14:36;1.63;;;1.27;;
21771;SDS011;11047;47.904;8.110;2023-12-04T10:17:15;1.92;;;1.50;;
21771;SDS011;11047;47.904;8.110;2023-12-04T10:19:43;1.92;;;1.42;;
21771;SDS011;11047;47.904;8.110;2023-12-04T10:22:10;2.63;;;1.10;;
21771;SDS011;11047;47.904;8.110;2023-12-04T10:24:39;2.17;;;0.90;;
21771;SDS011;11047;47.904;8.110;2023-12-04T10:27:07;0.93;;;0.93;;
21771;SDS011;11047;47.904;8.110;2023-12-04T10:29:41;0.68;;;0.43;;
21771;SDS011;11047;47.904;8.110;2023-12-04T10:32:09;0.60;;;0.60;;
21771;SDS011;11047;47.904;8.110;2023-12-04T10:34:42;0.60;;;0.60;;
21771;SDS011;11047;47.904;8.110;2023-12-04T10:37:09;0.50;;;0.50;;
21771;SDS011;11047;47.904;8.110;2023-12-04T10:39:45;0.60;;;0.60;;
21771;SDS011;11047;47.904;8.110;2023-12-04T10:42:28;0.50;;;0.50;;
21771;SDS011;11047;47.904;8.110;2023-12-04T10:44:56;1.25;;;0.50;;
21771;SDS011;11047;47.904;8.110;2023-12-04T10:47:24;1.20;;;0.82;;
21771;SDS011;11047;47.904;8.110;2023-12-04T10:49:56;0.60;;;0.60;;
21771;SDS011;11047;47.904;8.110;2023-12-04T10:52:26;1.25;;;0.60;;
21771;SDS011;11047;47.904;8.110;2023-12-04T10:54:54;0.93;;;0.70;;
21771;SDS011;11047;47.904;8.110;2023-12-04T10:57:25;0.82;;;0.68;;
21771;SDS011;11047;47.904;8.110;2023-12-04T10:59:56;0.98;;;0.73;;
21771;SDS011;11047;47.904;8.110;2023-12-04T11:02:26;0.75;;;0.70;;
21771;SDS011;11047;47.904;8.110;2023-12-04T11:04:58;1.02;;;0.75;;
21771;SDS011;11047;47.904;8.110;2023-12-04T11:07:33;0.85;;;0.82;;
21771;SDS011;11047;47.904;8.110;2023-12-04T11:10:04;1.48;;;0.70;;
21771;SDS011;11047;47.904;8.110;2023-12-04T11:12:33;1.65;;;0.80;;
21771;SDS011;11047;47.904;8.110;2023-12-04T11:15:04;1.08;;;0.60;;
21771;SDS011;11047;47.904;8.110;2023-12-04T11:20:07;0.65;;;0.60;;
21771;SDS011;11047;47.904;8.110;2023-12-04T11:22:41;1.00;;;0.73;;
21771;SDS011;11047;47.904;8.110;2023-12-04T11:25:09;0.57;;;0.57;;
21771;SDS011;11047;47.904;8.110;2023-12-04T11:27:37;0.98;;;0.50;;
21771;SDS011;11047;47.904;8.110;2023-12-04T11:30:06;1.85;;;0.77;;
21771;SDS011;11047;47.904;8.110;2023-12-04T11:32:43;1.75;;;0.85;;
21771;SDS011;11047;47.904;8.110;2023-12-04T11:35:14;0.65;;;0.65;;
21771;SDS011;11047;47.904;8.110;2023-12-04T11:37:43;0.60;;;0.60;;
21771;SDS011;11047;47.904;8.110;2023-12-04T11:40:11;0.57;;;0.50;;
21771;SDS011;11047;47.904;8.110;2023-12-04T11:42:39;0.75;;;0.73;;
21771;SDS011;11047;47.904;8.110;2023-12-04T11:45:06;2.88;;;0.60;;
21771;SDS011;11047;47.904;8.110;2023-12-04T11:47:48;0.68;;;0.68;;
21771;SDS011;11047;47.904;8.110;2023-12-04T11:50:20;0.70;;;0.63;;
21771;SDS011;11047;47.904;8.110;2023-12-04T11:52:49;1.67;;;0.60;;
21771;SDS011;11047;47.904;8.110;2023-12-04T11:55:26;0.50;;;0.50;;
21771;SDS011;11047;47.904;8.110;2023-12-04T11:57:54;0.63;;;0.50;;
21771;SDS011;11047;47.904;8.110;2023-12-04T12:00:23;0.50;;;0.50;;
21771;SDS011;11047;47.904;8.110;2023-12-04T12:03:00;0.95;;;0.50;;
21771;SDS011;11047;47.904;8.110;2023-12-04T12:05:32;0.73;;;0.70;;
21771;SDS011;11047;47.904;8.110;2023-12-04T12:08:03;0.43;;;0.43;;
21771;SDS011;11047;47.904;8.110;2023-12-04T12:10:33;1.33;;;0.60;;
21771;SDS011;11047;47.904;8.110;2023-12-04T12:13:01;0.82;;;0.60;;
21771;SDS011;11047;47.904;8.110;2023-12-04T12:15:28;0.98;;;0.60;;
21771;SDS011;11047;47.904;8.110;2023-12-04T12:17:55;1.95;;;0.77;;
21771;SDS011;11047;47.904;8.110;2023-12-04T12:20:24;0.98;;;0.50;;
21771;SDS011;11047;47.904;8.110;2023-12-04T12:22:54;0.60;;;0.60;;
21771;SDS011;11047;47.904;8.110;2023-12-04T12:25:22;0.93;;;0.60;;
21771;SDS011;11047;47.904;8.110;2023-12-04T12:27:51;0.77;;;0.60;;
21771;SDS011;11047;47.904;8.110;2023-12-04T12:30:18;0.60;;;0.40;;
21771;SDS011;11047;47.904;8.110;2023-12-04T12:32:45;0.55;;;0.50;;
21771;SDS011;11047;47.904;8.110;2023-12-04T12:35:12;0.30;;;0.30;;
21771;SDS011;11047;47.904;8.110;2023-12-04T12:37:45;0.65;;;0.40;;
21771;SDS011;11047;47.904;8.110;2023-12-04T12:42:40;0.40;;;0.40;;
21771;SDS011;11047;47.904;8.110;2023-12-04T12:45:08;0.98;;;0.60;;
21771;SDS011;11047;47.904;8.110;2023-12-04T12:47:36;0.73;;;0.43;;
21771;SDS011;11047;47.904;8.110;2023-12-04T12:50:05;0.68;;;0.68;;
21771;SDS011;11047;47.904;8.110;2023-12-04T12:52:38;1.40;;;0.50;;
21771;SDS011;11047;47.904;8.110;2023-12-04T12:55:05;1.05;;;0.50;;
21771;SDS011;11047;47.904;8.110;2023-12-04T12:57:35;0.30;;;0.30;;
21771;SDS011;11047;47.904;8.110;2023-12-04T13:00:03;0.40;;;0.40;;
21771;SDS011;11047;47.904;8.110;2023-12-04T13:02:33;0.57;;;0.50;;
21771;SDS011;11047;47.904;8.110;2023-12-04T13:05:02;1.60;;;0.40;;
21771;SDS011;11047;47.904;8.110;2023-12-04T13:07:30;1.25;;;0.70;;
21771;SDS011;11047;47.904;8.110;2023-12-04T13:09:57;0.52;;;0.50;;
21771;SDS011;11047;47.904;8.110;2023-12-04T13:12:24;0.40;;;0.40;;
21771;SDS011;11047;47.904;8.110;2023-12-04T13:14:52;1.48;;;0.60;;
21771;SDS011;11047;47.904;8.110;2023-12-04T13:17:19;0.45;;;0.45;;
21771;SDS011;11047;47.904;8.110;2023-12-04T13:19:46;0.47;;;0.47;;
21771;SDS011;11047;47.904;8.110;2023-12-04T13:22:13;2.03;;;0.47;;
21771;SDS011;11047;47.904;8.110;2023-12-04T13:24:40;1.38;;;0.70;;
21771;SDS011;11047;47.904;8.110;2023-12-04T13:27:07;0.50;;;0.50;;
21771;SDS011;11047;47.904;8.110;2023-12-04T13:29:34;1.00;;;0.50;;
21771;SDS011;11047;47.904;8.110;2023-12-04T13:32:03;0.50;;;0.50;;
21771;SDS011;11047;47.904;8.110;2023-12-04T13:34:30;1.55;;;0.80;;
21771;SDS011;11047;47.904;8.110;2023-12-04T13:36:57;0.95;;;0.50;;
21771;SDS011;11047;47.904;8.110;2023-12-04T13:39:24;1.02;;;0.50;;
21771;SDS011;11047;47.904;8.110;2023-12-04T13:42:04;0.50;;;0.50;;
21771;SDS011;11047;47.904;8.110;2023-12-04T13:44:48;0.43;;;0.43;;
21771;SDS011;11047;47.904;8.110;2023-12-04T13:47:18;0.80;;;0.75;;
21771;SDS011;11047;47.904;8.110;2023-12-04T13:49:45;0.88;;;0.60;;
21771;SDS011;11047;47.904;8.110;2023-12-04T13:52:11;0.55;;;0.55;;
21771;SDS011;11047;47.904;8.110;2023-12-04T13:54:38;0.82;;;0.60;;
21771;SDS011;11047;47.904;8.110;2023-12-04T13:57:12;0.55;;;0.50;;
21771;SDS011;11047;47.904;8.110;2023-12-04T13:59:44;0.80;;;0.65;;
21771;SDS011;11047;47.904;8.110;2023-12-04T14:02:10;0.50;;;0.50;;
21771;SDS011;11047;47.904;8.110;2023-12-04T14:04:39;0.50;;;0.50;;
21771;SDS011;11047;47.904;8.110;2023-12-04T14:07:06;0.65;;;0.60;;
21771;SDS011;11047;47.904;8.110;2023-12-04T14:09:33;1.27;;;0.57;;
21771;SDS011;11047;47.904;8.110;2023-12-04T14:12:01;0.70;;;0.60;;
21771;SDS011;11047;47.904;8.110;2023-12-04T14:14:28;0.45;;;0.45;;
21771;SDS011;11047;47.904;8.110;2023-12-04T14:16:55;0.40;;;0.40;;
21771;SDS011;11047;47.904;8.110;2023-12-04T14:19:22;1.23;;;0.73;;
21771;SDS011;11047;47.904;8.110;2023-12-04T14:21:51;0.40;;;0.40;;
21771;SDS011;11047;47.904;8.110;2023-12-04T14:24:18;0.63;;;0.40;;
21771;SDS011;11047;47.904;8.110;2023-12-04T14:26:46;1.55;;;0.60;;
21771;SDS011;11047;47.904;8.110;2023-12-04T14:29:13;0.90;;;0.90;;
21771;SDS011;11047;47.904;8.110;2023-12-04T14:31:40;0.75;;;0.73;;
21771;SDS011;11047;47.904;8.110;2023-12-04T14:34:07;0.52;;;0.50;;
21771;SDS011;11047;47.904;8.110;2023-12-04T14:36:34;0.95;;;0.40;;
21771;SDS011;11047;47.904;8.110;2023-12-04T14:39:03;0.70;;;0.63;;
21771;SDS011;11047;47.904;8.110;2023-12-04T14:41:30;0.60;;;0.60;;
21771;SDS011;11047;47.904;8.110;2023-12-04T14:44:02;1.38;;;0.80;;
21771;SDS011;11047;47.904;8.110;2023-12-04T14:46:29;0.60;;;0.60;;
21771;SDS011;11047;47.904;8.110;2023-12-04T14:48:56;0.63;;;0.43;;
21771;SDS011;11047;47.904;8.110;2023-12-04T14:51:23;0.38;;;0.35;;
21771;SDS011;11047;47.904;8.110;2023-12-04T14:53:51;0.50;;;0.50;;
21771;SDS011;11047;47.904;8.110;2023-12-04T14:56:37;0.50;;;0.50;;
21771;SDS011;11047;47.904;8.110;2023-12-04T14:59:27;0.50;;;0.50;;
21771;SDS011;11047;47.904;8.110;2023-12-04T15:02:23;0.60;;;0.60;;
21771;SDS011;11047;47.904;8.110;2023-12-04T15:05:12;0.88;;;0.57;;
21771;SDS011;11047;47.904;8.110;2023-12-04T15:07:58;0.70;;;0.70;;
21771;SDS011;11047;47.904;8.110;2023-12-04T15:11:01;1.88;;;0.80;;
21771;SDS011;11047;47.904;8.110;2023-12-04T15:13:54;1.95;;;0.60;;
21771;SDS011;11047;47.904;8.110;2023-12-04T15:16:35;0.73;;;0.47;;
21771;SDS011;11047;47.904;8.110;2023-12-04T15:19:07;0.90;;;0.82;;
21771;SDS011;11047;47.904;8.110;2023-12-04T15:21:50;0.98;;;0.85;;
21771;SDS011;11047;47.904;8.110;2023-12-04T15:24:19;0.63;;;0.57;;
21771;SDS011;11047;47.904;8.110;2023-12-04T15:26:46;1.05;;;0.77;;
21771;SDS011;11047;47.904;8.110;2023-12-04T15:29:13;0.77;;;0.68;;
21771;SDS011;11047;47.904;8.110;2023-12-04T15:31:43;0.50;;;0.50;;
21771;SDS011;11047;47.904;8.110;2023-12-04T15:34:09;1.27;;;0.70;;
21771;SDS011;11047;47.904;8.110;2023-12-04T15:36:36;0.60;;;0.60;;
21771;SDS011;11047;47.904;8.110;2023-12-04T15:39:02;0.80;;;0.60;;
21771;SDS011;11047;47.904;8.110;2023-12-04T15:41:29;1.00;;;0.70;;
21771;SDS011;11047;47.904;8.110;2023-12-04T15:43:56;0.85;;;0.80;;
21771;SDS011;11047;47.904;8.110;2023-12-04T15:46:24;0.95;;;0.70;;
21771;SDS011;11047;47.904;8.110;2023-12-04T15:48:52;0.70;;;0.70;;
21771;SDS011;11047;47.904;8.110;2023-12-04T15:51:19;0.70;;;0.70;;
21771;SDS011;11047;47.904;8.110;2023-12-04T15:53:45;0.80;;;0.80;;
21771;SDS011;11047;47.904;8.110;2023-12-04T15:56:13;0.90;;;0.90;;
21771;SDS011;11047;47.904;8.110;2023-12-04T15:58:39;0.82;;;0.80;;
21771;SDS011;11047;47.904;8.110;2023-12-04T16:01:06;1.42;;;1.00;;
21771;SDS011;11047;47.904;8.110;2023-12-04T16:03:35;1.17;;;0.85;;
21771;SDS011;11047;47.904;8.110;2023-12-04T16:06:02;1.25;;;0.93;;
21771;SDS011;11047;47.904;8.110;2023-12-04T16:08:29;3.83;;;2.35;;
21771;SDS011;11047;47.904;8.110;2023-12-04T16:10:56;1.48;;;1.08;;
21771;SDS011;11047;47.904;8.110;2023-12-04T16:13:23;1.25;;;0.95;;
21771;SDS011;11047;47.904;8.110;2023-12-04T16:15:50;0.90;;;0.80;;
21771;SDS011;11047;47.904;8.110;2023-12-04T16:18:18;1.15;;;0.80;;
21771;SDS011;11047;47.904;8.110;2023-12-04T16:20:46;2.42;;;1.67;;